createdAt,value
2019-04-27T00:01:36.148Z,7.00
2019-04-27T00:04:25.371Z,7.87
2019-04-27T00:06:56.698Z,8.77
2019-04-27T00:09:50.234Z,8.90
2019-04-27T00:12:22.360Z,7.50
2019-04-27T00:14:48.258Z,8.33
2019-04-27T00:17:41.232Z,7.63
2019-04-27T00:19:55.722Z,8.77
2019-04-27T00:22:30.761Z,8.17
2019-04-27T00:25:00.163Z,9.10
2019-04-27T00:27:30.535Z,8.87
2019-04-27T00:30:03.878Z,8.63
2019-04-27T00:32:33.660Z,8.67
2019-04-27T00:35:03.819Z,9.07
2019-04-27T00:37:39.503Z,10.17
2019-04-27T00:40:24.080Z,9.10
2019-04-27T00:42:56.567Z,9.20
2019-04-27T00:45:29.063Z,10.10
2019-04-27T00:47:59.983Z,10.07
2019-04-27T00:50:30.397Z,11.23
2019-04-27T00:53:00.748Z,11.37
2019-04-27T00:55:30.390Z,8.83
2019-04-27T00:58:12.959Z,9.93
2019-04-27T01:01:00.015Z,9.33
2019-04-27T01:03:33.216Z,9.87
2019-04-27T01:06:03.254Z,9.47
2019-04-27T01:08:34.265Z,11.63
2019-04-27T01:11:05.872Z,9.67
2019-04-27T01:13:35.224Z,10.50
2019-04-27T01:16:05.900Z,10.37
2019-04-27T01:18:38.740Z,9.43
2019-04-27T01:21:09.327Z,9.10
2019-04-27T01:23:38.723Z,9.63
2019-04-27T01:26:10.658Z,9.60
2019-04-27T01:28:49.006Z,9.43
2019-04-27T01:31:21.122Z,9.57
2019-04-27T01:33:49.607Z,11.23
2019-04-27T01:36:19.125Z,9.30
2019-04-27T01:38:49.676Z,9.83
2019-04-27T01:41:19.384Z,9.90
2019-04-27T01:43:50.734Z,10.33
2019-04-27T01:46:21.103Z,10.40
2019-04-27T01:48:51.715Z,9.47
2019-04-27T01:51:22.015Z,9.90
2019-04-27T01:53:51.385Z,9.77
2019-04-27T01:56:22.098Z,10.00
2019-04-27T01:58:51.685Z,10.37
2019-04-27T02:01:23.956Z,12.33
2019-04-27T02:03:54.468Z,11.60
2019-04-27T02:06:26.165Z,10.53
2019-04-27T02:08:55.750Z,10.93
2019-04-27T02:11:26.308Z,14.27
2019-04-27T02:13:55.713Z,10.90
2019-04-27T02:16:26.118Z,11.60
2019-04-27T02:18:54.615Z,11.27
2019-04-27T02:21:24.011Z,10.90
2019-04-27T02:23:52.543Z,12.33
2019-04-27T02:26:21.858Z,12.53
2019-04-27T02:28:56.547Z,11.63
2019-04-27T02:31:29.590Z,11.57
2019-04-27T02:34:06.537Z,12.33
2019-04-27T02:36:35.027Z,11.20
2019-04-27T02:39:05.615Z,12.13
2019-04-27T02:41:36.085Z,11.63
2019-04-27T02:44:09.704Z,13.63
2019-04-27T02:46:40.783Z,12.00
2019-04-27T02:49:11.300Z,12.77
2019-04-27T02:51:59.473Z,13.10
2019-04-27T02:54:30.375Z,13.17
2019-04-27T02:57:01.333Z,13.13
2019-04-27T02:59:30.664Z,13.10
2019-04-27T03:02:10.803Z,14.10
2019-04-27T03:04:41.508Z,13.70
2019-04-27T03:07:11.866Z,14.63
2019-04-27T03:09:42.288Z,14.93
2019-04-27T03:12:13.109Z,14.73
2019-04-27T03:14:45.307Z,15.57
2019-04-27T03:17:22.254Z,15.03
2019-04-27T03:19:53.011Z,15.60
2019-04-27T03:22:25.089Z,15.43
2019-04-27T03:25:14.957Z,15.57
2019-04-27T03:27:47.024Z,15.60
2019-04-27T03:30:22.478Z,16.53
2019-04-27T03:32:55.518Z,16.27
2019-04-27T03:35:23.312Z,17.57
2019-04-27T03:37:56.866Z,17.03
2019-04-27T03:40:30.499Z,17.33
2019-04-27T03:43:00.411Z,18.27
2019-04-27T03:45:30.239Z,19.97
2019-04-27T03:48:00.416Z,18.13
2019-04-27T03:50:34.129Z,20.77
2019-04-27T03:53:06.212Z,18.27
2019-04-27T03:55:49.992Z,17.97
2019-04-27T03:58:21.795Z,18.17
2019-04-27T04:00:54.850Z,19.00
2019-04-27T04:03:25.162Z,17.70
2019-04-27T04:05:55.672Z,18.40
2019-04-27T04:08:26.068Z,18.83
2019-04-27T04:11:03.689Z,18.47
2019-04-27T04:13:46.662Z,18.13
2019-04-27T04:16:20.197Z,17.93
2019-04-27T04:19:00.758Z,18.77
2019-04-27T04:21:29.992Z,19.73
2019-04-27T04:24:00.983Z,20.53
2019-04-27T04:26:32.701Z,19.20
2019-04-27T04:29:02.337Z,20.40
2019-04-27T04:31:33.426Z,20.37
2019-04-27T04:34:04.077Z,20.37
2019-04-27T04:36:33.584Z,21.40
2019-04-27T04:39:04.153Z,20.93
2019-04-27T04:41:51.291Z,21.97
2019-04-27T04:44:23.449Z,23.47
2019-04-27T04:46:55.657Z,23.50
2019-04-27T04:49:29.419Z,24.33
2019-04-27T04:51:59.417Z,24.97
2019-04-27T04:54:30.238Z,25.03
2019-04-27T04:57:02.684Z,24.73
2019-04-27T04:59:32.360Z,26.20
2019-04-27T05:02:02.370Z,25.37
2019-04-27T05:04:33.383Z,26.67
2019-04-27T05:07:03.894Z,26.60
2019-04-27T05:09:33.270Z,27.57
2019-04-27T05:12:02.649Z,28.03
2019-04-27T05:14:33.014Z,27.97
2019-04-27T05:17:03.530Z,26.90
2019-04-27T05:19:33.825Z,27.63
2019-04-27T05:22:04.441Z,27.70
2019-04-27T05:24:36.516Z,26.83
2019-04-27T05:27:06.923Z,28.83
2019-04-27T05:29:35.666Z,26.90
2019-04-27T05:32:05.021Z,28.00
2019-04-27T05:34:35.529Z,29.63
2019-04-27T05:37:05.250Z,26.97
2019-04-27T05:39:35.608Z,29.70
2019-04-27T05:42:06.018Z,27.93
2019-04-27T05:44:55.378Z,27.40
2019-04-27T05:47:26.326Z,26.97
2019-04-27T05:49:58.888Z,31.20
2019-04-27T05:52:29.398Z,27.43
2019-04-27T05:55:04.469Z,32.97
2019-04-27T05:57:35.081Z,26.13
2019-04-27T06:00:05.916Z,26.13
2019-04-27T06:02:39.717Z,24.77
2019-04-27T06:05:09.370Z,25.63
2019-04-27T06:07:40.045Z,23.20
2019-04-27T06:10:09.704Z,23.60
2019-04-27T06:12:40.134Z,21.90
2019-04-27T06:15:12.369Z,22.63
2019-04-27T06:17:43.340Z,21.23
2019-04-27T06:20:14.187Z,20.33
2019-04-27T06:22:45.681Z,20.00
2019-04-27T06:25:15.229Z,18.73
2019-04-27T06:27:44.695Z,19.50
2019-04-27T06:30:15.591Z,19.63
2019-04-27T06:32:45.984Z,26.40
2019-04-27T06:35:15.821Z,19.40
2019-04-27T06:37:45.239Z,19.07
2019-04-27T06:40:14.838Z,18.57
2019-04-27T06:42:43.337Z,17.50
2019-04-27T06:45:15.398Z,17.13
2019-04-27T06:47:44.910Z,18.03
2019-04-27T06:50:15.373Z,16.63
2019-04-27T06:52:45.459Z,16.63
2019-04-27T06:55:14.948Z,16.33
2019-04-27T06:57:45.322Z,20.13
2019-04-27T07:00:16.374Z,15.97
2019-04-27T07:02:45.773Z,14.17
2019-04-27T07:05:15.347Z,14.10
2019-04-27T07:07:44.727Z,14.90
2019-04-27T07:10:14.137Z,13.60
2019-04-27T07:12:44.644Z,13.63
2019-04-27T07:15:20.062Z,14.00
2019-04-27T07:17:51.403Z,13.53
2019-04-27T07:20:21.022Z,12.83
2019-04-27T07:22:54.613Z,13.97
2019-04-27T07:25:28.810Z,17.13
2019-04-27T07:27:59.403Z,12.27
2019-04-27T07:30:30.801Z,12.20
2019-04-27T07:33:01.457Z,11.00
2019-04-27T07:35:32.950Z,11.50
2019-04-27T07:38:02.430Z,10.20
2019-04-27T07:40:33.039Z,10.30
2019-04-27T07:43:04.138Z,9.83
2019-04-27T07:45:36.199Z,9.63
2019-04-27T07:48:06.867Z,9.30
2019-04-27T07:50:36.323Z,10.33
2019-04-27T07:53:08.517Z,10.90
2019-04-27T07:55:39.300Z,10.33
2019-04-27T07:58:08.995Z,9.10
2019-04-27T08:00:39.558Z,8.93
2019-04-27T08:03:10.008Z,9.37
2019-04-27T08:05:39.494Z,8.57
2019-04-27T08:08:09.853Z,8.23
2019-04-27T08:10:39.298Z,8.80
2019-04-27T08:13:09.720Z,8.20
2019-04-27T08:15:39.693Z,8.13
2019-04-27T08:18:09.215Z,8.93
2019-04-27T08:20:39.166Z,8.43
2019-04-27T08:23:09.487Z,8.07
2019-04-27T08:25:39.253Z,7.30
2019-04-27T08:28:20.513Z,7.33
2019-04-27T08:30:52.462Z,7.10
2019-04-27T08:33:33.548Z,7.90
2019-04-27T08:36:05.312Z,7.60
2019-04-27T08:38:39.158Z,7.77
2019-04-27T08:41:09.666Z,8.33
2019-04-27T08:43:40.176Z,8.63
2019-04-27T08:46:13.552Z,9.40
2019-04-27T08:48:45.896Z,9.73
2019-04-27T08:51:15.578Z,10.67
2019-04-27T08:53:45.059Z,10.27
2019-04-27T08:56:16.693Z,10.93
2019-04-27T08:58:46.115Z,9.97
2019-04-27T09:01:18.356Z,13.63
2019-04-27T09:03:50.844Z,9.53
2019-04-27T09:06:23.653Z,8.73
2019-04-27T09:08:59.269Z,10.97
2019-04-27T09:11:47.175Z,8.13
2019-04-27T09:14:23.272Z,8.77
2019-04-27T09:17:03.663Z,11.07
2019-04-27T09:19:35.977Z,7.80
2019-04-27T09:22:15.870Z,8.20
2019-04-27T09:24:46.725Z,9.23
2019-04-27T09:27:19.615Z,8.30
2019-04-27T09:29:50.023Z,8.20
2019-04-27T09:32:20.972Z,7.40
2019-04-27T09:34:50.814Z,7.77
2019-04-27T09:37:19.901Z,8.67
2019-04-27T09:39:51.161Z,8.00
2019-04-27T09:42:22.399Z,8.07
2019-04-27T09:44:52.179Z,8.60
2019-04-27T09:47:27.162Z,7.00
2019-04-27T09:49:58.404Z,7.03
2019-04-27T09:52:29.121Z,4.80
2019-04-27T09:54:59.736Z,4.40
2019-04-27T09:57:30.351Z,6.23
2019-04-27T10:00:00.969Z,4.30
2019-04-27T10:02:31.475Z,6.87
2019-04-27T10:05:02.436Z,6.67
2019-04-27T10:07:33.333Z,9.13
2019-04-27T10:10:04.105Z,7.57
2019-04-27T10:12:36.834Z,7.47
2019-04-27T10:15:07.237Z,7.93
2019-04-27T10:17:37.984Z,7.07
2019-04-27T10:20:09.433Z,8.83
2019-04-27T10:22:42.755Z,7.97
2019-04-27T10:25:12.666Z,10.97
2019-04-27T10:27:45.793Z,9.40
2019-04-27T10:30:16.497Z,9.43
2019-04-27T10:32:46.229Z,9.53
2019-04-27T10:35:16.568Z,10.27
2019-04-27T10:37:48.643Z,10.27
2019-04-27T10:40:19.048Z,9.73
2019-04-27T10:42:50.897Z,10.40
2019-04-27T10:45:21.439Z,9.37
2019-04-27T10:47:51.941Z,8.53
2019-04-27T10:50:22.655Z,8.47
2019-04-27T10:52:54.058Z,7.60
2019-04-27T10:55:23.689Z,6.83
2019-04-27T10:57:53.082Z,8.73
2019-04-27T11:00:25.719Z,7.93
2019-04-27T11:02:56.544Z,8.50
2019-04-27T11:05:35.851Z,8.13
2019-04-27T11:08:06.582Z,8.10
2019-04-27T11:10:36.204Z,8.97
2019-04-27T11:13:06.286Z,8.00
2019-04-27T11:15:37.147Z,8.57
2019-04-27T11:18:07.981Z,8.13
2019-04-27T11:20:38.392Z,6.97
2019-04-27T11:23:12.098Z,6.50
2019-04-27T11:25:40.031Z,4.70
2019-04-27T11:28:12.735Z,4.30
2019-04-27T11:30:43.038Z,7.13
2019-04-27T11:33:13.655Z,9.23
2019-04-27T11:35:46.968Z,4.97
2019-04-27T11:38:17.597Z,5.40
2019-04-27T11:40:48.030Z,6.67
2019-04-27T11:43:17.370Z,6.13
2019-04-27T11:45:46.109Z,5.77
2019-04-27T11:48:18.488Z,5.37
2019-04-27T11:50:49.116Z,7.20
2019-04-27T11:53:23.181Z,6.87
2019-04-27T11:55:52.782Z,4.00
2019-04-27T11:58:23.137Z,5.53
2019-04-27T12:00:52.616Z,4.83
2019-04-27T12:03:22.322Z,6.73
2019-04-27T12:05:51.749Z,4.57
2019-04-27T12:08:21.173Z,3.80
2019-04-27T12:10:51.614Z,4.07
2019-04-27T12:13:22.448Z,3.23
2019-04-27T12:15:51.964Z,3.47
2019-04-27T12:18:22.414Z,10.07
2019-04-27T12:20:51.992Z,3.67
2019-04-27T12:23:33.095Z,3.03
2019-04-27T12:25:52.497Z,5.67
2019-04-27T12:28:27.198Z,4.47
2019-04-27T12:31:04.488Z,5.20
2019-04-27T12:33:35.802Z,2.70
2019-04-27T12:36:07.472Z,3.50
2019-04-27T12:38:37.988Z,2.57
2019-04-27T12:41:08.458Z,3.30
2019-04-27T12:43:39.314Z,2.33
2019-04-27T12:46:10.556Z,2.87
2019-04-27T12:48:45.829Z,2.30
2019-04-27T12:51:20.989Z,4.10
2019-04-27T12:53:59.947Z,2.60
2019-04-27T12:56:32.133Z,4.30
2019-04-27T12:59:04.204Z,2.77
2019-04-27T13:01:36.125Z,2.73
2019-04-27T13:04:05.865Z,3.67
2019-04-27T13:06:36.570Z,3.97
2019-04-27T13:09:09.064Z,4.50
2019-04-27T13:11:39.471Z,3.27
2019-04-27T13:14:08.731Z,6.00
2019-04-27T13:16:39.827Z,2.47
2019-04-27T13:19:09.190Z,3.53
2019-04-27T13:21:38.747Z,1.67
2019-04-27T13:24:09.800Z,2.77
2019-04-27T13:26:51.357Z,1.37
2019-04-27T13:29:21.930Z,2.57
2019-04-27T13:31:52.369Z,1.67
2019-04-27T13:34:23.997Z,4.60
2019-04-27T13:36:56.076Z,3.90
2019-04-27T13:39:27.048Z,4.97
2019-04-27T13:41:57.917Z,4.57
2019-04-27T13:44:30.624Z,3.47
2019-04-27T13:47:18.153Z,1.67
2019-04-27T13:50:08.002Z,2.60
2019-04-27T13:52:37.572Z,1.13
2019-04-27T13:55:27.080Z,5.83
2019-04-27T13:57:58.873Z,4.07
2019-04-27T14:00:30.709Z,4.57
2019-04-27T14:03:01.730Z,1.27
2019-04-27T14:05:37.370Z,2.37
2019-04-27T14:08:09.190Z,1.83
2019-04-27T14:10:42.882Z,1.40
2019-04-27T14:13:13.812Z,3.83
2019-04-27T14:15:45.359Z,4.60
2019-04-27T14:18:16.092Z,2.07
2019-04-27T14:20:50.769Z,2.17
2019-04-27T14:23:22.957Z,2.30
2019-04-27T14:25:52.502Z,3.30
2019-04-27T14:28:22.933Z,1.97
2019-04-27T14:30:53.554Z,3.13
2019-04-27T14:33:23.287Z,3.87
2019-04-27T14:35:53.098Z,3.03
2019-04-27T14:38:24.133Z,3.70
2019-04-27T14:40:56.206Z,1.70
2019-04-27T14:43:28.603Z,1.70
2019-04-27T14:46:02.572Z,4.67
2019-04-27T14:48:36.107Z,2.00
2019-04-27T14:51:04.934Z,2.87
2019-04-27T14:53:38.600Z,4.43
2019-04-27T14:56:08.979Z,1.53
2019-04-27T14:58:37.822Z,1.40
2019-04-27T15:01:08.658Z,1.17
2019-04-27T15:03:39.153Z,2.60
2019-04-27T15:06:13.838Z,1.53
2019-04-27T15:08:43.733Z,1.97
2019-04-27T15:11:19.094Z,0.77
2019-04-27T15:13:55.011Z,1.47
2019-04-27T15:16:25.603Z,1.03
2019-04-27T15:18:59.863Z,0.73
2019-04-27T15:21:32.642Z,1.07
2019-04-27T15:24:09.391Z,2.00
2019-04-27T15:26:35.051Z,15.43
2019-04-27T15:29:07.647Z,5.43
2019-04-27T15:31:41.920Z,3.17
2019-04-27T15:34:23.424Z,0.97
2019-04-27T15:36:56.864Z,1.00
2019-04-27T15:39:41.351Z,1.43
2019-04-27T15:42:12.492Z,2.30
2019-04-27T15:44:44.188Z,1.13
2019-04-27T15:47:13.746Z,1.17
2019-04-27T15:49:51.093Z,1.30
2019-04-27T15:52:17.852Z,0.90
2019-04-27T15:54:50.040Z,0.50
2019-04-27T15:57:20.923Z,0.60
2019-04-27T15:59:50.549Z,0.30
2019-04-27T16:02:20.053Z,1.43
2019-04-27T16:04:53.295Z,2.70
2019-04-27T16:07:25.295Z,2.13
2019-04-27T16:10:00.890Z,1.37
2019-04-27T16:12:30.516Z,2.93
2019-04-27T16:15:01.116Z,2.57
2019-04-27T16:17:31.977Z,1.23
2019-04-27T16:20:01.941Z,2.77
2019-04-27T16:22:31.548Z,1.40
2019-04-27T16:25:03.929Z,2.53
2019-04-27T16:27:35.169Z,3.10
2019-04-27T16:30:12.812Z,2.97
2019-04-27T16:32:40.371Z,3.50
2019-04-27T16:35:13.974Z,1.57
2019-04-27T16:37:52.002Z,0.77
2019-04-27T16:40:24.393Z,1.93
2019-04-27T16:42:54.898Z,1.70
2019-04-27T16:45:27.219Z,1.30
2019-04-27T16:47:59.424Z,1.67
2019-04-27T16:50:28.969Z,1.93
2019-04-27T16:53:00.949Z,2.43
2019-04-27T16:55:34.127Z,2.60
2019-04-27T16:58:09.629Z,2.70
2019-04-27T17:00:38.711Z,3.03
2019-04-27T17:03:09.302Z,3.47
2019-04-27T17:05:41.293Z,4.63
2019-04-27T17:08:21.416Z,2.77
2019-04-27T17:10:45.549Z,4.53
2019-04-27T17:13:16.207Z,2.47
2019-04-27T17:15:53.713Z,2.13
2019-04-27T17:18:42.669Z,1.40
2019-04-27T17:21:18.918Z,1.67
2019-04-27T17:23:43.795Z,3.63
2019-04-27T17:26:21.220Z,7.20
2019-04-27T17:28:55.632Z,1.77
2019-04-27T17:31:26.606Z,2.93
2019-04-27T17:34:00.416Z,2.10
2019-04-27T17:36:30.434Z,1.20
2019-04-27T17:39:01.937Z,2.77
2019-04-27T17:41:32.415Z,2.50
2019-04-27T17:44:05.212Z,1.50
2019-04-27T17:46:35.723Z,3.27
2019-04-27T17:49:05.291Z,4.83
2019-04-27T17:51:35.374Z,3.53
2019-04-27T17:54:11.135Z,3.97
2019-04-27T17:56:48.362Z,7.83
2019-04-27T17:59:16.970Z,1.33
2019-04-27T18:01:44.733Z,2.30
2019-04-27T18:04:14.108Z,1.97
2019-04-27T18:06:44.606Z,1.30
2019-04-27T18:09:16.310Z,1.53
2019-04-27T18:11:44.795Z,2.57
2019-04-27T18:14:14.799Z,4.13
2019-04-27T18:16:44.676Z,2.53
2019-04-27T18:19:19.316Z,10.17
2019-04-27T18:22:06.574Z,11.13
2019-04-27T18:24:38.649Z,2.13
2019-04-27T18:27:28.689Z,3.13
2019-04-27T18:30:03.247Z,1.67
2019-04-27T18:32:32.737Z,1.47
2019-04-27T18:35:01.583Z,1.73
2019-04-27T18:37:32.207Z,1.60
2019-04-27T18:40:02.596Z,7.03
2019-04-27T18:42:31.967Z,1.77
2019-04-27T18:45:07.070Z,0.90
2019-04-27T18:47:36.632Z,2.70
2019-04-27T18:50:14.641Z,1.83
2019-04-27T18:52:58.220Z,3.37
2019-04-27T18:55:29.015Z,2.87
2019-04-27T18:58:02.152Z,2.50
2019-04-27T19:00:34.670Z,2.67
2019-04-27T19:03:06.446Z,1.63
2019-04-27T19:05:40.136Z,1.70
2019-04-27T19:08:13.558Z,3.77
2019-04-27T19:10:49.123Z,1.93
2019-04-27T19:13:19.651Z,4.80
2019-04-27T19:15:49.135Z,2.17
2019-04-27T19:18:19.945Z,2.00
2019-04-27T19:20:52.029Z,2.47
2019-04-27T19:23:24.199Z,3.70
2019-04-27T19:25:58.527Z,3.23
2019-04-27T19:28:31.049Z,2.97
2019-04-27T19:31:11.088Z,4.00
2019-04-27T19:33:41.696Z,4.70
2019-04-27T19:36:12.479Z,3.50
2019-04-27T19:38:43.455Z,2.03
2019-04-27T19:41:12.932Z,2.77
2019-04-27T19:43:43.278Z,3.07
2019-04-27T19:46:13.726Z,3.37
2019-04-27T19:48:43.133Z,1.90
2019-04-27T19:51:12.494Z,3.20
2019-04-27T19:53:41.912Z,3.70
2019-04-27T19:56:11.317Z,2.70
2019-04-27T19:58:43.347Z,2.40
2019-04-27T20:01:18.143Z,3.50
2019-04-27T20:04:06.207Z,3.20
2019-04-27T20:06:38.340Z,5.00
2019-04-27T20:09:19.220Z,3.70
2019-04-27T20:11:49.741Z,2.90
2019-04-27T20:14:20.861Z,2.00
2019-04-27T20:16:52.010Z,2.10
2019-04-27T20:19:22.477Z,3.03
2019-04-27T20:21:52.939Z,1.80
2019-04-27T20:24:22.889Z,3.03
2019-04-27T20:26:53.216Z,3.93
2019-04-27T20:29:26.859Z,3.07
2019-04-27T20:31:57.265Z,4.77
2019-04-27T20:34:26.853Z,5.60
2019-04-27T20:36:57.450Z,4.23
2019-04-27T20:39:28.875Z,4.30
2019-04-27T20:41:58.519Z,5.03
2019-04-27T20:44:27.858Z,2.80
2019-04-27T20:47:01.175Z,5.07
2019-04-27T20:49:31.789Z,7.63
2019-04-27T20:52:14.828Z,5.67
2019-04-27T20:54:46.796Z,7.47
2019-04-27T20:57:16.277Z,2.97
2019-04-27T20:59:46.785Z,4.13
2019-04-27T21:02:32.523Z,4.97
2019-04-27T21:05:02.897Z,3.33
2019-04-27T21:07:42.951Z,6.10
2019-04-27T21:10:13.666Z,4.23
2019-04-27T21:12:44.502Z,6.43
2019-04-27T21:15:14.014Z,2.63
2019-04-27T21:17:45.626Z,4.23
2019-04-27T21:20:16.123Z,4.13
2019-04-27T21:22:47.887Z,8.50
2019-04-27T21:25:19.650Z,3.93
2019-04-27T21:27:51.405Z,3.63
2019-04-27T21:30:21.834Z,2.57
2019-04-27T21:32:52.883Z,2.77
2019-04-27T21:35:23.258Z,3.53
2019-04-27T21:37:53.664Z,4.13
2019-04-27T21:40:25.467Z,7.57
2019-04-27T21:42:55.863Z,2.67
2019-04-27T21:45:26.352Z,2.93
2019-04-27T21:47:58.536Z,5.53
2019-04-27T21:50:27.891Z,3.93
2019-04-27T21:53:02.781Z,4.43
2019-04-27T21:55:37.259Z,4.10
2019-04-27T21:58:07.889Z,4.43
2019-04-27T22:00:44.032Z,4.07
2019-04-27T22:03:18.546Z,6.87
2019-04-27T22:05:47.975Z,9.63
2019-04-27T22:08:18.417Z,4.47
2019-04-27T22:10:47.854Z,6.60
2019-04-27T22:13:18.309Z,4.20
2019-04-27T22:15:47.125Z,4.67
2019-04-27T22:18:15.599Z,6.20
2019-04-27T22:20:46.018Z,4.97
2019-04-27T22:23:34.073Z,2.70
2019-04-27T22:26:03.490Z,3.67
2019-04-27T22:28:46.157Z,3.03
2019-04-27T22:31:04.187Z,2.70
2019-04-27T22:33:36.216Z,5.80
2019-04-27T22:36:06.832Z,6.33
2019-04-27T22:38:36.344Z,5.33
2019-04-27T22:41:17.585Z,6.53
2019-04-27T22:44:05.832Z,5.60
2019-04-27T22:46:37.910Z,4.70
2019-04-27T22:49:10.964Z,5.63
2019-04-27T22:51:43.078Z,3.83
2019-04-27T22:54:12.692Z,4.20
2019-04-27T22:56:44.657Z,7.10
2019-04-27T22:59:15.068Z,3.47
2019-04-27T23:02:01.581Z,3.37
2019-04-27T23:04:35.132Z,4.47
2019-04-27T23:07:05.594Z,5.30
2019-04-27T23:09:35.894Z,3.77
2019-04-27T23:12:07.953Z,6.33
2019-04-27T23:14:41.492Z,4.03
2019-04-27T23:17:19.915Z,3.60
2019-04-27T23:19:50.999Z,6.77
2019-04-27T23:22:21.451Z,5.20
2019-04-27T23:24:51.995Z,4.87
2019-04-27T23:27:21.917Z,6.60
2019-04-27T23:29:52.528Z,5.13
2019-04-27T23:32:42.759Z,4.30
2019-04-27T23:35:13.427Z,5.10
2019-04-27T23:37:45.742Z,14.10
2019-04-27T23:40:15.764Z,2.87
2019-04-27T23:42:46.275Z,7.40
2019-04-27T23:45:15.863Z,6.07
2019-04-27T23:47:45.243Z,4.10
2019-04-27T23:50:15.123Z,4.50
2019-04-27T23:53:01.890Z,3.20
2019-04-27T23:55:34.776Z,5.93
2019-04-27T23:58:05.210Z,3.30
